Time;durP1;ratioP1;P1;durP2;ratioP2;P2;SDS_P1;SDS_P2;PMS_P1;PMS_P2;Temp;Humidity;BMP_temperature;BMP_pressure;BME280_temperature;BME280_humidity;BME280_pressure;Samples;Min_cycle;Max_cycle;Signal;HPM_P1;HPM_P2
2021/05/06 00:32:57;;;;;;;7.82;5.30;;;;;;;-145.48;100.00;59605.97;5045569;28;20084;-77
2021/05/06 00:35:25;;;;;;;5.50;4.60;;;;;;;-145.48;100.00;59605.97;5044394;28;20029;-77
2021/05/06 00:54:23;;;;;;;10.52;6.38;;;;;;;-145.48;100.00;59605.97;5052342;28;20043;-79
2021/05/06 00:59:38;;;;;;;7.13;5.68;;;;;;;-145.48;100.00;59605.97;5045649;28;20127;-79
2021/05/06 01:04:42;;;;;;;7.70;6.72;;;;;;;-145.48;100.00;59605.97;5040745;28;20065;-79
2021/05/06 01:07:20;;;;;;;9.18;7.15;;;;;;;-145.48;100.00;59605.97;5043098;28;20037;-78
2021/05/06 01:12:18;;;;;;;10.38;8.23;;;;;;;-145.48;100.00;59605.97;5040809;28;20029;-79
2021/05/06 01:14:43;;;;;;;10.82;6.97;;;;;;;-145.48;100.00;59605.97;5047120;28;20048;-78
2021/05/06 01:17:09;;;;;;;11.57;8.30;;;;;;;-145.48;100.00;59605.97;5043597;28;20052;-78
2021/05/06 01:19:34;;;;;;;11.48;9.13;;;;;;;-145.48;100.00;59605.97;5045396;28;20048;-78
2021/05/06 01:22:00;;;;;;;12.80;9.77;;;;;;;-145.48;100.00;59605.97;5042060;28;20036;-78
2021/05/06 01:24:26;;;;;;;12.90;9.60;;;;;;;-145.48;100.00;59605.97;5042758;28;20024;-78
2021/05/06 01:27:05;;;;;;;12.80;9.88;;;;;;;-145.48;100.00;59605.97;5048605;28;20031;-78
2021/05/06 01:32:11;;;;;;;10.68;9.18;;;;;;;-145.48;100.00;59605.97;5047742;28;20025;-79
2021/05/06 01:34:37;;;;;;;12.60;10.85;;;;;;;-145.48;100.00;59605.97;5043406;28;20055;-79
2021/05/06 01:37:12;;;;;;;14.25;12.23;;;;;;;-145.48;100.00;59605.97;5042412;28;20393;-78
2021/05/06 01:39:59;;;;;;;16.05;13.13;;;;;;;-145.48;100.00;59605.97;5042713;28;20029;-79
2021/05/06 01:42:44;;;;;;;19.00;14.02;;;;;;;-145.48;100.00;59605.97;5043765;28;20129;-78
2021/05/06 01:48:03;;;;;;;17.63;14.23;;;;;;;-145.48;100.00;59605.97;5039481;28;20128;-79
2021/05/06 02:01:00;;;;;;;19.25;14.27;;;;;;;-145.48;100.00;59605.97;5043554;28;20021;-78
2021/05/06 02:03:26;;;;;;;16.75;14.93;;;;;;;-145.48;100.00;59605.97;5039383;28;20072;-78
2021/05/06 02:05:51;;;;;;;19.90;15.77;;;;;;;-145.48;100.00;59605.97;5041220;28;20036;-78
2021/05/06 02:08:18;;;;;;;21.13;15.63;;;;;;;-145.48;100.00;59605.97;5038631;28;20032;-79
2021/05/06 02:10:43;;;;;;;22.50;17.52;;;;;;;-145.48;100.00;59605.97;5044910;28;20021;-79
2021/05/06 02:13:09;;;;;;;20.95;16.88;;;;;;;-145.48;100.00;59605.97;5067823;28;20028;-80
2021/05/06 02:15:38;;;;;;;24.60;17.73;;;;;;;-145.48;100.00;59605.97;5056532;28;20104;-80
2021/05/06 02:18:05;;;;;;;23.52;18.48;;;;;;;-145.48;100.00;59605.97;5059670;28;20041;-80
2021/05/06 02:20:30;;;;;;;24.38;18.83;;;;;;;-145.48;100.00;59605.97;5055639;28;20025;-80
2021/05/06 02:22:56;;;;;;;19.90;17.33;;;;;;;-145.48;100.00;59605.97;5044572;28;20030;-81
2021/05/06 02:25:22;;;;;;;21.52;18.05;;;;;;;-145.48;100.00;59605.97;5037935;28;20033;-81
2021/05/06 02:27:48;;;;;;;22.70;18.23;;;;;;;-145.48;100.00;59605.97;5045991;28;20021;-81
2021/05/06 02:30:15;;;;;;;25.55;19.35;;;;;;;-145.48;100.00;59605.97;5042193;28;20030;-81
2021/05/06 02:32:40;;;;;;;27.02;20.52;;;;;;;-145.48;100.00;59605.97;5046812;28;20060;-81
2021/05/06 02:35:06;;;;;;;31.20;22.33;;;;;;;-145.48;100.00;59605.97;5039154;28;20136;-81
2021/05/06 02:37:32;;;;;;;23.73;20.00;;;;;;;-145.48;100.00;59605.97;5040326;28;20036;-81
2021/05/06 02:39:57;;;;;;;24.77;19.38;;;;;;;-145.48;100.00;59605.97;5036936;28;20021;-81
2021/05/06 02:42:22;;;;;;;26.23;19.63;;;;;;;-145.48;100.00;59605.97;5042617;28;20029;-80
2021/05/06 02:44:48;;;;;;;25.35;20.33;;;;;;;-145.48;100.00;59605.97;5034552;28;20037;-80
2021/05/06 02:47:14;;;;;;;27.30;20.10;;;;;;;-145.48;100.00;59605.97;5046267;28;20021;-80
2021/05/06 02:49:44;;;;;;;33.90;21.10;;;;;;;-145.48;100.00;59605.97;5039489;28;20029;-80
2021/05/06 02:52:16;;;;;;;26.92;21.38;;;;;;;-145.48;100.00;59605.97;5060437;28;20013;-80
2021/05/06 02:54:45;;;;;;;33.38;21.25;;;;;;;-145.48;100.00;59605.97;5054594;28;20097;-80
2021/05/06 03:02:59;;;;;;;25.10;19.45;;;;;;;-145.48;100.00;59605.97;5052150;28;20130;-78
2021/05/06 03:05:28;;;;;;;32.13;21.10;;;;;;;-145.48;100.00;59605.97;5044018;28;20061;-78
2021/05/06 03:23:43;;;;;;;24.00;18.85;;;;;;;-145.48;100.00;59605.97;5056494;28;20040;-80
2021/05/06 03:26:09;;;;;;;22.85;19.38;;;;;;;-145.48;100.00;59605.97;5056412;28;20110;-79
2021/05/06 03:28:39;;;;;;;23.60;18.77;;;;;;;-145.48;100.00;59605.97;5054733;28;20094;-79
2021/05/06 03:41:53;;;;;;;24.55;18.65;;;;;;;-145.48;100.00;59605.97;5045675;28;20040;-80
2021/05/06 03:50:56;;;;;;;23.67;15.48;;;;;;;-145.48;100.00;59605.97;5033600;28;20067;-78
2021/05/06 04:27:25;;;;;;;15.02;9.60;;;;;;;-145.48;100.00;59605.97;5042509;28;20464;-78
2021/05/06 04:37:50;;;;;;;11.18;8.15;;;;;;;-145.48;100.00;59605.97;5048808;28;20107;-79
2021/05/06 04:55:56;;;;;;;10.55;6.63;;;;;;;-145.48;100.00;59605.97;5048933;28;20033;-78
2021/05/06 05:03:54;;;;;;;7.35;4.78;;;;;;;-145.48;100.00;59605.97;5047183;28;20087;-79
2021/05/06 05:06:33;;;;;;;7.70;5.20;;;;;;;-145.48;100.00;59605.97;5043255;28;20131;-77
2021/05/06 05:14:36;;;;;;;8.15;5.80;;;;;;;-145.48;100.00;59605.97;5045718;28;20025;-78
2021/05/06 05:17:49;;;;;;;12.90;6.67;;;;;;;-145.48;100.00;59605.97;5049994;28;20025;-78
2021/05/06 05:27:48;;;;;;;18.60;12.35;;;;;;;-145.48;100.00;59605.97;5033524;28;20069;-78
2021/05/06 05:30:14;;;;;;;16.08;13.00;;;;;;;-145.48;100.00;59605.97;5030483;28;20049;-78
2021/05/06 05:32:40;;;;;;;20.35;14.50;;;;;;;-145.48;100.00;59605.97;5042675;28;20025;-78
2021/05/06 05:35:18;;;;;;;19.80;14.63;;;;;;;-145.48;100.00;59605.97;5036755;28;20044;-79
2021/05/06 05:37:48;;;;;;;18.45;15.20;;;;;;;-145.48;100.00;59605.97;5046052;28;20036;-78
2021/05/06 05:56:25;;;;;;;26.15;18.17;;;;;;;-145.48;100.00;59605.97;5049166;28;20082;-78
2021/05/06 05:58:51;;;;;;;24.65;18.98;;;;;;;-145.48;100.00;59605.97;5043481;28;20026;-78
2021/05/06 06:01:17;;;;;;;23.55;19.38;;;;;;;-145.48;100.00;59605.97;5045762;28;20029;-78
2021/05/06 06:03:44;;;;;;;24.30;18.27;;;;;;;-145.48;100.00;59605.97;5040132;28;20029;-79
2021/05/06 06:06:09;;;;;;;26.48;21.00;;;;;;;-145.48;100.00;59605.97;5047158;28;20746;-79
2021/05/06 06:08:36;;;;;;;24.80;19.80;;;;;;;-145.48;100.00;59605.97;5035930;28;20034;-79
2021/05/06 06:11:03;;;;;;;27.63;20.40;;;;;;;-145.48;100.00;59605.97;5038611;28;20021;-79
2021/05/06 06:13:29;;;;;;;25.38;19.17;;;;;;;-145.48;100.00;59605.97;5045042;28;20033;-78
2021/05/06 06:16:01;;;;;;;23.75;18.80;;;;;;;-145.48;100.00;59605.97;5042025;28;20024;-78
2021/05/06 06:21:01;;;;;;;26.85;19.95;;;;;;;-145.48;100.00;59605.97;5045735;28;20055;-79
2021/05/06 06:23:40;;;;;;;29.33;21.35;;;;;;;-145.48;100.00;59605.97;5042359;28;20061;-79
2021/05/06 06:26:06;;;;;;;26.73;19.13;;;;;;;-145.48;100.00;59605.97;5051422;28;20031;-79
2021/05/06 06:28:40;;;;;;;28.30;20.40;;;;;;;-145.48;100.00;59605.97;5038686;28;20037;-79
2021/05/06 06:31:12;;;;;;;29.00;22.02;;;;;;;-145.48;100.00;59605.97;5057817;28;20064;-78
2021/05/06 06:33:38;;;;;;;30.20;21.90;;;;;;;-145.48;100.00;59605.97;5062999;28;20092;-78
2021/05/06 06:36:03;;;;;;;28.55;21.15;;;;;;;-145.48;100.00;59605.97;5058513;28;20064;-78
2021/05/06 06:38:29;;;;;;;25.98;19.95;;;;;;;-145.48;100.00;59605.97;5057901;28;20043;-77
2021/05/06 06:40:55;;;;;;;27.27;19.80;;;;;;;-145.48;100.00;59605.97;5041281;28;20031;-80
2021/05/06 06:43:20;;;;;;;27.17;19.55;;;;;;;-145.48;100.00;59605.97;5037155;28;20025;-78
2021/05/06 06:45:45;;;;;;;30.10;20.17;;;;;;;-145.48;100.00;59605.97;5039128;28;20044;-77
2021/05/06 06:48:13;;;;;;;27.50;19.63;;;;;;;-145.48;100.00;59605.97;5040311;28;20037;-79
2021/05/06 06:50:38;;;;;;;26.38;18.65;;;;;;;-145.48;100.00;59605.97;5032394;28;20055;-78
2021/05/06 06:53:03;;;;;;;24.83;18.70;;;;;;;-145.48;100.00;59605.97;5037179;28;20072;-77
2021/05/06 06:55:29;;;;;;;25.85;18.08;;;;;;;-145.48;100.00;59605.97;5038254;28;20148;-80
2021/05/06 06:58:06;;;;;;;21.25;17.90;;;;;;;-145.48;100.00;59605.97;5042768;28;20020;-78
2021/05/06 07:00:32;;;;;;;22.42;16.88;;;;;;;-145.48;100.00;59605.97;5022658;28;20036;-78
2021/05/06 07:02:57;;;;;;;23.27;16.65;;;;;;;-145.48;100.00;59605.97;5043354;28;20045;-77
2021/05/06 07:05:22;;;;;;;21.25;15.38;;;;;;;-145.48;100.00;59605.97;5040195;28;20028;-78
2021/05/06 07:07:47;;;;;;;15.02;12.38;;;;;;;-145.48;100.00;59605.97;5043657;28;20024;-79
2021/05/06 07:10:13;;;;;;;16.27;12.25;;;;;;;-145.48;100.00;59605.97;5042169;28;20033;-78
2021/05/06 07:12:38;;;;;;;19.73;12.73;;;;;;;-145.48;100.00;59605.97;5040360;28;20028;-79
2021/05/06 07:15:04;;;;;;;16.73;10.60;;;;;;;-145.48;100.00;59605.97;5042969;28;20037;-78
2021/05/06 07:17:29;;;;;;;17.55;10.27;;;;;;;-145.48;100.00;59605.97;5039756;28;20027;-79
2021/05/06 07:19:55;;;;;;;12.43;8.75;;;;;;;-145.48;100.00;59605.97;5041026;28;20040;-79
2021/05/06 07:22:20;;;;;;;11.00;8.55;;;;;;;-145.48;100.00;59605.97;5028094;28;20048;-79
2021/05/06 07:24:45;;;;;;;13.40;8.88;;;;;;;-145.48;100.00;59605.97;5036247;28;20045;-82
2021/05/06 07:27:11;;;;;;;13.95;9.73;;;;;;;-145.48;100.00;59605.97;5043553;28;20051;-81
2021/05/06 07:29:36;;;;;;;15.35;10.73;;;;;;;-145.48;100.00;59605.97;5039121;28;20472;-80
2021/05/06 07:32:01;;;;;;;17.67;10.80;;;;;;;-145.48;100.00;59605.97;5044836;28;20097;-81
2021/05/06 07:34:27;;;;;;;16.90;10.98;;;;;;;-145.48;100.00;59605.97;5040821;28;20027;-79
2021/05/06 07:36:52;;;;;;;17.88;13.60;;;;;;;-145.48;100.00;59605.97;5045934;28;20036;-80
2021/05/06 07:39:17;;;;;;;21.55;16.08;;;;;;;-145.48;100.00;59605.97;5040967;28;20033;-80
2021/05/06 07:41:43;;;;;;;21.25;16.50;;;;;;;-145.48;100.00;59605.97;5034118;28;20029;-79
2021/05/06 07:44:08;;;;;;;24.67;18.67;;;;;;;-145.48;100.00;59605.97;5037673;28;20064;-79
2021/05/06 07:46:34;;;;;;;24.17;18.60;;;;;;;-145.48;100.00;59605.97;5042370;28;20811;-79
2021/05/06 07:49:00;;;;;;;25.17;19.25;;;;;;;-145.48;100.00;59605.97;5035033;28;20026;-80
2021/05/06 07:51:26;;;;;;;23.58;18.15;;;;;;;-145.48;100.00;59605.97;5042408;28;20073;-80
2021/05/06 07:53:53;;;;;;;26.58;18.38;;;;;;;-145.48;100.00;59605.97;5042466;28;20071;-80
2021/05/06 07:56:19;;;;;;;25.88;17.92;;;;;;;-145.48;100.00;59605.97;5034425;28;20029;-80
2021/05/06 07:58:45;;;;;;;27.20;18.55;;;;;;;-145.48;100.00;59605.97;5037043;28;20092;-80
2021/05/06 08:01:10;;;;;;;24.88;17.80;;;;;;;-145.48;100.00;59605.97;5035706;28;20469;-80
2021/05/06 08:03:37;;;;;;;22.52;17.77;;;;;;;-145.48;100.00;59605.97;5042281;28;20415;-79
2021/05/06 08:06:02;;;;;;;22.40;17.90;;;;;;;-145.48;100.00;59605.97;5037986;28;20057;-79
2021/05/06 08:08:28;;;;;;;24.70;18.25;;;;;;;-145.48;100.00;59605.97;5046855;28;20033;-81
2021/05/06 08:10:56;;;;;;;22.48;17.30;;;;;;;-145.48;100.00;59605.97;5050580;28;20021;-81
2021/05/06 08:13:22;;;;;;;29.50;18.27;;;;;;;-145.48;100.00;59605.97;5065782;28;20052;-81
2021/05/06 08:15:49;;;;;;;23.58;17.98;;;;;;;-145.48;100.00;59605.97;5061861;28;20021;-80
2021/05/06 08:18:15;;;;;;;24.48;15.73;;;;;;;-145.48;100.00;59605.97;5062521;28;20096;-80
2021/05/06 08:20:43;;;;;;;23.10;16.83;;;;;;;-145.48;100.00;59605.97;5047307;28;20026;-80
2021/05/06 08:23:12;;;;;;;23.77;16.23;;;;;;;-145.48;100.00;59605.97;5036950;28;20025;-81
2021/05/06 08:25:38;;;;;;;19.00;14.23;;;;;;;-145.48;100.00;59605.97;5041260;28;20035;-80
2021/05/06 08:28:04;;;;;;;16.88;14.18;;;;;;;-145.48;100.00;59605.97;5043834;28;20036;-80
2021/05/06 08:30:30;;;;;;;24.30;16.05;;;;;;;-145.48;100.00;59605.97;5048234;28;20026;-80
2021/05/06 08:33:05;;;;;;;20.75;15.77;;;;;;;-145.48;100.00;59605.97;5045310;28;20022;-80
2021/05/06 08:35:32;;;;;;;19.05;14.90;;;;;;;-145.48;100.00;59605.97;5039592;28;20053;-80
2021/05/06 08:37:57;;;;;;;20.52;15.63;;;;;;;-145.48;100.00;59605.97;5036482;28;20025;-79
2021/05/06 08:40:22;;;;;;;18.65;14.65;;;;;;;-145.48;100.00;59605.97;5045827;28;20040;-81
2021/05/06 08:42:52;;;;;;;15.88;13.15;;;;;;;-145.48;100.00;59605.97;5047425;28;20510;-80
2021/05/06 08:45:18;;;;;;;18.80;12.35;;;;;;;-145.48;100.00;59605.97;5055943;28;20020;-81
2021/05/06 08:47:49;;;;;;;21.80;11.27;;;;;;;-145.48;100.00;59605.97;5063085;28;20030;-80
2021/05/06 08:50:19;;;;;;;16.27;12.73;;;;;;;-145.48;100.00;59605.97;5056875;28;20037;-80
2021/05/06 08:52:49;;;;;;;15.55;12.05;;;;;;;-145.48;100.00;59605.97;5047501;28;20017;-81
2021/05/06 08:55:46;;;;;;;15.48;11.63;;;;;;;-145.48;100.00;59605.97;5040451;28;20025;-80
2021/05/06 08:58:14;;;;;;;16.30;11.60;;;;;;;-145.48;100.00;59605.97;5046155;28;20534;-80
2021/05/06 09:00:40;;;;;;;13.63;9.88;;;;;;;-145.48;100.00;59605.97;5044950;28;20037;-80
2021/05/06 09:03:06;;;;;;;15.23;9.07;;;;;;;-145.48;100.00;59605.97;5036239;28;20056;-81
